sensor_id;sensor_type;location;lat;lon;timestamp;temperature;humidity
4399;DHT22;2213;49.720;7.296;2022-09-09T00:00:47;15.50;99.90
4399;DHT22;2213;49.720;7.296;2022-09-09T00:03:26;15.50;99.90
4399;DHT22;2213;49.720;7.296;2022-09-09T00:06:03;15.50;99.90
4399;DHT22;2213;49.720;7.296;2022-09-09T00:08:45;15.50;99.90
4399;DHT22;2213;49.720;7.296;2022-09-09T00:11:28;15.50;99.90
4399;DHT22;2213;49.720;7.296;2022-09-09T00:14:11;15.50;99.90
4399;DHT22;2213;49.720;7.296;2022-09-09T00:16:51;15.50;99.90
4399;DHT22;2213;49.720;7.296;2022-09-09T00:19:28;15.50;99.90
4399;DHT22;2213;49.720;7.296;2022-09-09T00:22:13;15.40;99.90
4399;DHT22;2213;49.720;7.296;2022-09-09T00:24:45;15.40;99.90
4399;DHT22;2213;49.720;7.296;2022-09-09T00:27:23;15.30;99.90
4399;DHT22;2213;49.720;7.296;2022-09-09T00:30:12;15.30;99.90
4399;DHT22;2213;49.720;7.296;2022-09-09T00:32:45;15.30;99.90
4399;DHT22;2213;49.720;7.296;2022-09-09T00:35:18;15.20;99.90
4399;DHT22;2213;49.720;7.296;2022-09-09T00:37:53;15.20;99.90
4399;DHT22;2213;49.720;7.296;2022-09-09T00:41:05;15.10;99.90
4399;DHT22;2213;49.720;7.296;2022-09-09T00:43:40;15.10;99.90
4399;DHT22;2213;49.720;7.296;2022-09-09T00:49:29;15.20;99.90
4399;DHT22;2213;49.720;7.296;2022-09-09T00:52:21;15.20;99.90
4399;DHT22;2213;49.720;7.296;2022-09-09T00:55:05;15.20;99.90
4399;DHT22;2213;49.720;7.296;2022-09-09T00:57:40;15.20;99.90
4399;DHT22;2213;49.720;7.296;2022-09-09T01:00:19;15.30;99.90
4399;DHT22;2213;49.720;7.296;2022-09-09T01:03:04;15.30;99.90
4399;DHT22;2213;49.720;7.296;2022-09-09T01:05:57;15.30;99.90
4399;DHT22;2213;49.720;7.296;2022-09-09T01:08:43;15.20;99.90
4399;DHT22;2213;49.720;7.296;2022-09-09T01:11:27;15.20;99.90
4399;DHT22;2213;49.720;7.296;2022-09-09T01:14:11;15.20;99.90
4399;DHT22;2213;49.720;7.296;2022-09-09T01:16:46;15.10;99.90
4399;DHT22;2213;49.720;7.296;2022-09-09T01:19:24;15.00;99.90
4399;DHT22;2213;49.720;7.296;2022-09-09T01:22:11;15.00;99.90
4399;DHT22;2213;49.720;7.296;2022-09-09T01:25:11;15.00;99.90
4399;DHT22;2213;49.720;7.296;2022-09-09T01:27:56;15.00;99.90
4399;DHT22;2213;49.720;7.296;2022-09-09T01:30:29;15.00;99.90
4399;DHT22;2213;49.720;7.296;2022-09-09T01:32:59;14.90;99.90
4399;DHT22;2213;49.720;7.296;2022-09-09T01:35:37;15.00;99.90
4399;DHT22;2213;49.720;7.296;2022-09-09T01:38:13;15.00;99.90
4399;DHT22;2213;49.720;7.296;2022-09-09T01:40:43;15.00;99.90
4399;DHT22;2213;49.720;7.296;2022-09-09T01:43:14;15.00;99.90
4399;DHT22;2213;49.720;7.296;2022-09-09T01:45:45;15.00;99.90
4399;DHT22;2213;49.720;7.296;2022-09-09T01:48:16;15.00;99.90
4399;DHT22;2213;49.720;7.296;2022-09-09T01:50:46;15.00;99.90
4399;DHT22;2213;49.720;7.296;2022-09-09T01:53:16;15.00;99.90
4399;DHT22;2213;49.720;7.296;2022-09-09T01:55:53;15.10;99.90
4399;DHT22;2213;49.720;7.296;2022-09-09T01:58:41;15.00;99.90
4399;DHT22;2213;49.720;7.296;2022-09-09T02:01:27;15.00;99.90
4399;DHT22;2213;49.720;7.296;2022-09-09T02:04:13;15.00;99.90
4399;DHT22;2213;49.720;7.296;2022-09-09T02:06:54;15.10;99.90
4399;DHT22;2213;49.720;7.296;2022-09-09T02:09:26;15.10;99.90
4399;DHT22;2213;49.720;7.296;2022-09-09T02:12:03;15.10;99.90
4399;DHT22;2213;49.720;7.296;2022-09-09T02:14:48;15.10;99.90
4399;DHT22;2213;49.720;7.296;2022-09-09T02:17:28;15.10;99.90
4399;DHT22;2213;49.720;7.296;2022-09-09T02:20:05;15.10;99.90
4399;DHT22;2213;49.720;7.296;2022-09-09T02:22:39;15.10;99.90
4399;DHT22;2213;49.720;7.296;2022-09-09T02:25:14;15.10;99.90
4399;DHT22;2213;49.720;7.296;2022-09-09T02:27:50;15.10;99.90
4399;DHT22;2213;49.720;7.296;2022-09-09T02:30:20;15.20;99.90
4399;DHT22;2213;49.720;7.296;2022-09-09T02:32:52;15.20;99.90
4399;DHT22;2213;49.720;7.296;2022-09-09T02:35:25;15.20;99.90
4399;DHT22;2213;49.720;7.296;2022-09-09T02:38:01;15.20;99.90
4399;DHT22;2213;49.720;7.296;2022-09-09T02:40:34;15.20;99.90
4399;DHT22;2213;49.720;7.296;2022-09-09T02:43:03;15.20;99.90
4399;DHT22;2213;49.720;7.296;2022-09-09T02:45:41;15.10;99.90
4399;DHT22;2213;49.720;7.296;2022-09-09T02:48:23;15.20;99.90
4399;DHT22;2213;49.720;7.296;2022-09-09T02:51:08;15.20;99.90
4399;DHT22;2213;49.720;7.296;2022-09-09T02:53:47;15.20;99.90
4399;DHT22;2213;49.720;7.296;2022-09-09T02:56:25;15.20;99.90
4399;DHT22;2213;49.720;7.296;2022-09-09T02:59:03;15.20;99.90
4399;DHT22;2213;49.720;7.296;2022-09-09T03:01:34;15.20;99.90
4399;DHT22;2213;49.720;7.296;2022-09-09T03:04:03;15.20;99.90
4399;DHT22;2213;49.720;7.296;2022-09-09T03:06:33;15.20;99.90
4399;DHT22;2213;49.720;7.296;2022-09-09T03:09:02;15.30;99.90
4399;DHT22;2213;49.720;7.296;2022-09-09T03:11:31;15.30;99.90
4399;DHT22;2213;49.720;7.296;2022-09-09T03:14:02;15.30;99.90
4399;DHT22;2213;49.720;7.296;2022-09-09T03:16:31;15.30;99.90
4399;DHT22;2213;49.720;7.296;2022-09-09T03:19:02;15.30;99.90
4399;DHT22;2213;49.720;7.296;2022-09-09T03:21:31;15.30;99.90
4399;DHT22;2213;49.720;7.296;2022-09-09T03:23:59;15.30;99.90
4399;DHT22;2213;49.720;7.296;2022-09-09T03:26:30;15.40;99.90
4399;DHT22;2213;49.720;7.296;2022-09-09T03:28:58;15.40;99.90
4399;DHT22;2213;49.720;7.296;2022-09-09T03:31:28;15.40;99.90
4399;DHT22;2213;49.720;7.296;2022-09-09T03:33:58;15.40;99.90
4399;DHT22;2213;49.720;7.296;2022-09-09T03:36:28;15.40;99.90
4399;DHT22;2213;49.720;7.296;2022-09-09T03:38:58;15.30;99.90
4399;DHT22;2213;49.720;7.296;2022-09-09T03:41:27;15.40;99.90
4399;DHT22;2213;49.720;7.296;2022-09-09T03:43:55;15.40;99.90
4399;DHT22;2213;49.720;7.296;2022-09-09T03:46:25;15.40;99.90
4399;DHT22;2213;49.720;7.296;2022-09-09T03:48:54;15.30;99.90
4399;DHT22;2213;49.720;7.296;2022-09-09T03:51:23;15.30;99.90
4399;DHT22;2213;49.720;7.296;2022-09-09T03:53:53;15.40;99.90
4399;DHT22;2213;49.720;7.296;2022-09-09T03:56:23;15.40;99.90
4399;DHT22;2213;49.720;7.296;2022-09-09T03:58:52;15.40;99.90
4399;DHT22;2213;49.720;7.296;2022-09-09T04:01:20;15.40;99.90
4399;DHT22;2213;49.720;7.296;2022-09-09T04:03:50;15.40;99.90
4399;DHT22;2213;49.720;7.296;2022-09-09T04:06:19;15.40;99.90
4399;DHT22;2213;49.720;7.296;2022-09-09T04:08:48;15.40;99.90
4399;DHT22;2213;49.720;7.296;2022-09-09T04:11:19;15.50;99.90
4399;DHT22;2213;49.720;7.296;2022-09-09T04:13:48;15.60;99.90
4399;DHT22;2213;49.720;7.296;2022-09-09T04:16:17;15.50;99.90
4399;DHT22;2213;49.720;7.296;2022-09-09T04:18:47;15.60;99.90
4399;DHT22;2213;49.720;7.296;2022-09-09T04:21:16;15.50;99.90
4399;DHT22;2213;49.720;7.296;2022-09-09T04:23:45;15.50;99.90
4399;DHT22;2213;49.720;7.296;2022-09-09T04:26:14;15.50;99.90
4399;DHT22;2213;49.720;7.296;2022-09-09T04:28:45;15.50;99.90
4399;DHT22;2213;49.720;7.296;2022-09-09T04:31:16;15.40;99.90
4399;DHT22;2213;49.720;7.296;2022-09-09T04:33:48;15.40;99.90
4399;DHT22;2213;49.720;7.296;2022-09-09T04:36:18;15.40;99.90
4399;DHT22;2213;49.720;7.296;2022-09-09T04:38:47;15.40;99.90
4399;DHT22;2213;49.720;7.296;2022-09-09T04:41:16;15.30;99.90
4399;DHT22;2213;49.720;7.296;2022-09-09T04:43:46;15.30;99.90
4399;DHT22;2213;49.720;7.296;2022-09-09T04:46:16;15.40;99.90
4399;DHT22;2213;49.720;7.296;2022-09-09T04:48:44;15.30;99.90
4399;DHT22;2213;49.720;7.296;2022-09-09T04:51:14;15.30;99.90
4399;DHT22;2213;49.720;7.296;2022-09-09T04:53:43;15.30;99.90
4399;DHT22;2213;49.720;7.296;2022-09-09T04:56:15;15.30;99.90
4399;DHT22;2213;49.720;7.296;2022-09-09T04:58:46;15.30;99.90
4399;DHT22;2213;49.720;7.296;2022-09-09T05:01:16;15.30;99.90
4399;DHT22;2213;49.720;7.296;2022-09-09T05:03:46;15.30;99.90
4399;DHT22;2213;49.720;7.296;2022-09-09T05:06:17;15.20;99.90
4399;DHT22;2213;49.720;7.296;2022-09-09T05:08:49;15.20;99.90
4399;DHT22;2213;49.720;7.296;2022-09-09T05:11:20;15.10;99.90
4399;DHT22;2213;49.720;7.296;2022-09-09T05:13:53;15.20;99.90
4399;DHT22;2213;49.720;7.296;2022-09-09T05:16:23;15.20;99.90
4399;DHT22;2213;49.720;7.296;2022-09-09T05:18:52;15.20;99.90
4399;DHT22;2213;49.720;7.296;2022-09-09T05:21:23;15.20;99.90
4399;DHT22;2213;49.720;7.296;2022-09-09T05:23:53;15.20;99.90
4399;DHT22;2213;49.720;7.296;2022-09-09T05:26:22;15.20;99.90
4399;DHT22;2213;49.720;7.296;2022-09-09T05:28:52;15.20;99.90
4399;DHT22;2213;49.720;7.296;2022-09-09T05:31:21;15.30;99.90
4399;DHT22;2213;49.720;7.296;2022-09-09T05:33:53;15.30;99.90
4399;DHT22;2213;49.720;7.296;2022-09-09T05:36:23;15.30;99.90
4399;DHT22;2213;49.720;7.296;2022-09-09T05:38:52;15.30;99.90
4399;DHT22;2213;49.720;7.296;2022-09-09T05:41:21;15.40;99.90
4399;DHT22;2213;49.720;7.296;2022-09-09T05:43:52;15.30;99.90
4399;DHT22;2213;49.720;7.296;2022-09-09T05:46:22;15.40;99.90
4399;DHT22;2213;49.720;7.296;2022-09-09T05:48:52;15.40;99.90
4399;DHT22;2213;49.720;7.296;2022-09-09T05:51:22;15.40;99.90
4399;DHT22;2213;49.720;7.296;2022-09-09T05:53:53;15.40;99.90
4399;DHT22;2213;49.720;7.296;2022-09-09T05:56:26;15.50;99.90
4399;DHT22;2213;49.720;7.296;2022-09-09T05:58:57;15.50;99.90
4399;DHT22;2213;49.720;7.296;2022-09-09T06:01:28;15.60;99.90
4399;DHT22;2213;49.720;7.296;2022-09-09T06:03:58;15.60;99.90
4399;DHT22;2213;49.720;7.296;2022-09-09T06:06:30;15.60;99.90
4399;DHT22;2213;49.720;7.296;2022-09-09T06:09:04;15.60;99.90
4399;DHT22;2213;49.720;7.296;2022-09-09T06:11:38;15.60;99.90
4399;DHT22;2213;49.720;7.296;2022-09-09T06:14:09;15.60;99.90
4399;DHT22;2213;49.720;7.296;2022-09-09T06:16:38;15.70;99.90
4399;DHT22;2213;49.720;7.296;2022-09-09T06:19:09;15.80;99.90
4399;DHT22;2213;49.720;7.296;2022-09-09T06:21:39;15.80;99.90
4399;DHT22;2213;49.720;7.296;2022-09-09T06:24:08;15.90;99.90
4399;DHT22;2213;49.720;7.296;2022-09-09T06:26:38;15.90;99.90
4399;DHT22;2213;49.720;7.296;2022-09-09T06:29:10;15.80;99.90
4399;DHT22;2213;49.720;7.296;2022-09-09T06:31:39;16.00;99.90
4399;DHT22;2213;49.720;7.296;2022-09-09T06:34:09;16.00;99.90
4399;DHT22;2213;49.720;7.296;2022-09-09T06:36:38;16.10;99.90
4399;DHT22;2213;49.720;7.296;2022-09-09T06:39:08;16.00;99.90
4399;DHT22;2213;49.720;7.296;2022-09-09T06:41:41;16.00;99.90
4399;DHT22;2213;49.720;7.296;2022-09-09T06:44:11;16.10;99.90
4399;DHT22;2213;49.720;7.296;2022-09-09T06:46:40;16.10;99.90
4399;DHT22;2213;49.720;7.296;2022-09-09T06:49:09;16.20;99.90
4399;DHT22;2213;49.720;7.296;2022-09-09T06:51:38;16.20;99.90
4399;DHT22;2213;49.720;7.296;2022-09-09T06:54:10;16.20;99.90
4399;DHT22;2213;49.720;7.296;2022-09-09T06:56:42;16.20;99.90
4399;DHT22;2213;49.720;7.296;2022-09-09T06:59:13;16.30;99.90
4399;DHT22;2213;49.720;7.296;2022-09-09T07:01:43;16.30;99.90
4399;DHT22;2213;49.720;7.296;2022-09-09T07:04:15;16.20;99.90
4399;DHT22;2213;49.720;7.296;2022-09-09T07:06:45;16.30;99.90
4399;DHT22;2213;49.720;7.296;2022-09-09T07:09:16;16.40;99.90
4399;DHT22;2213;49.720;7.296;2022-09-09T07:11:47;16.30;99.90
4399;DHT22;2213;49.720;7.296;2022-09-09T07:14:20;16.20;99.90
4399;DHT22;2213;49.720;7.296;2022-09-09T07:16:49;16.30;99.90
4399;DHT22;2213;49.720;7.296;2022-09-09T07:19:22;16.40;99.90
4399;DHT22;2213;49.720;7.296;2022-09-09T07:21:51;16.40;99.90
4399;DHT22;2213;49.720;7.296;2022-09-09T07:24:20;16.50;99.90
4399;DHT22;2213;49.720;7.296;2022-09-09T07:26:49;16.50;99.90
4399;DHT22;2213;49.720;7.296;2022-09-09T07:29:20;16.40;99.90
4399;DHT22;2213;49.720;7.296;2022-09-09T07:31:50;16.40;99.90
4399;DHT22;2213;49.720;7.296;2022-09-09T07:34:18;16.40;99.90
4399;DHT22;2213;49.720;7.296;2022-09-09T07:36:48;16.50;99.90
4399;DHT22;2213;49.720;7.296;2022-09-09T07:39:18;16.50;99.90
4399;DHT22;2213;49.720;7.296;2022-09-09T07:41:48;16.50;99.90
4399;DHT22;2213;49.720;7.296;2022-09-09T07:44:21;16.50;99.90
4399;DHT22;2213;49.720;7.296;2022-09-09T07:46:51;16.50;99.90
4399;DHT22;2213;49.720;7.296;2022-09-09T07:49:20;16.50;99.90
4399;DHT22;2213;49.720;7.296;2022-09-09T07:51:56;16.50;99.90
4399;DHT22;2213;49.720;7.296;2022-09-09T07:54:25;16.50;99.90
4399;DHT22;2213;49.720;7.296;2022-09-09T07:56:54;16.40;99.90
4399;DHT22;2213;49.720;7.296;2022-09-09T07:59:24;16.40;99.90
4399;DHT22;2213;49.720;7.296;2022-09-09T08:01:53;16.40;99.90
4399;DHT22;2213;49.720;7.296;2022-09-09T08:04:24;16.40;99.90
4399;DHT22;2213;49.720;7.296;2022-09-09T08:06:57;16.40;99.90
4399;DHT22;2213;49.720;7.296;2022-09-09T08:09:27;16.40;99.90
4399;DHT22;2213;49.720;7.296;2022-09-09T08:11:57;16.40;99.90
4399;DHT22;2213;49.720;7.296;2022-09-09T08:14:28;16.30;99.90
4399;DHT22;2213;49.720;7.296;2022-09-09T08:16:56;16.40;99.90
4399;DHT22;2213;49.720;7.296;2022-09-09T08:19:25;16.30;99.90
4399;DHT22;2213;49.720;7.296;2022-09-09T08:21:57;16.30;99.90
4399;DHT22;2213;49.720;7.296;2022-09-09T08:24:27;16.30;99.90
4399;DHT22;2213;49.720;7.296;2022-09-09T08:26:57;16.40;99.90
4399;DHT22;2213;49.720;7.296;2022-09-09T08:29:27;16.40;99.90
4399;DHT22;2213;49.720;7.296;2022-09-09T08:31:57;16.50;99.90
4399;DHT22;2213;49.720;7.296;2022-09-09T08:34:26;16.60;99.90
4399;DHT22;2213;49.720;7.296;2022-09-09T08:36:57;16.50;99.90
4399;DHT22;2213;49.720;7.296;2022-09-09T08:39:26;16.70;99.90
4399;DHT22;2213;49.720;7.296;2022-09-09T08:42:27;16.70;99.90
4399;DHT22;2213;49.720;7.296;2022-09-09T08:45:25;16.70;99.90
4399;DHT22;2213;49.720;7.296;2022-09-09T08:48:21;16.80;99.90
4399;DHT22;2213;49.720;7.296;2022-09-09T08:51:04;16.80;99.90
4399;DHT22;2213;49.720;7.296;2022-09-09T08:53:39;16.80;99.90
4399;DHT22;2213;49.720;7.296;2022-09-09T08:56:14;16.90;99.90
4399;DHT22;2213;49.720;7.296;2022-09-09T08:58:48;16.90;99.90
4399;DHT22;2213;49.720;7.296;2022-09-09T09:01:39;17.10;99.90
4399;DHT22;2213;49.720;7.296;2022-09-09T09:04:33;16.80;99.90
4399;DHT22;2213;49.720;7.296;2022-09-09T09:07:19;16.90;99.90
4399;DHT22;2213;49.720;7.296;2022-09-09T09:10:02;16.90;99.90
4399;DHT22;2213;49.720;7.296;2022-09-09T09:13:01;17.00;99.90
4399;DHT22;2213;49.720;7.296;2022-09-09T09:15:34;16.90;99.90
4399;DHT22;2213;49.720;7.296;2022-09-09T09:18:08;17.00;99.90
4399;DHT22;2213;49.720;7.296;2022-09-09T09:20:50;17.00;99.90
4399;DHT22;2213;49.720;7.296;2022-09-09T09:23:33;17.10;99.90
4399;DHT22;2213;49.720;7.296;2022-09-09T09:26:09;17.20;99.90
4399;DHT22;2213;49.720;7.296;2022-09-09T09:28:39;17.40;99.90
4399;DHT22;2213;49.720;7.296;2022-09-09T09:31:10;17.50;99.90
4399;DHT22;2213;49.720;7.296;2022-09-09T09:33:47;17.50;99.90
4399;DHT22;2213;49.720;7.296;2022-09-09T09:36:21;17.40;99.90
4399;DHT22;2213;49.720;7.296;2022-09-09T09:38:56;17.30;99.90
4399;DHT22;2213;49.720;7.296;2022-09-09T09:41:47;17.30;99.90
4399;DHT22;2213;49.720;7.296;2022-09-09T09:44:23;17.40;99.90
4399;DHT22;2213;49.720;7.296;2022-09-09T09:47:05;17.40;99.90
4399;DHT22;2213;49.720;7.296;2022-09-09T09:49:37;17.40;99.90
4399;DHT22;2213;49.720;7.296;2022-09-09T09:52:06;17.60;99.90
4399;DHT22;2213;49.720;7.296;2022-09-09T09:54:45;17.60;99.90
4399;DHT22;2213;49.720;7.296;2022-09-09T09:57:15;17.60;99.90
4399;DHT22;2213;49.720;7.296;2022-09-09T09:59:46;17.50;99.90
4399;DHT22;2213;49.720;7.296;2022-09-09T10:02:17;17.70;99.90
4399;DHT22;2213;49.720;7.296;2022-09-09T10:05:02;17.70;99.90
4399;DHT22;2213;49.720;7.296;2022-09-09T10:07:32;17.80;99.90
4399;DHT22;2213;49.720;7.296;2022-09-09T10:10:01;17.70;99.90
4399;DHT22;2213;49.720;7.296;2022-09-09T10:12:38;17.60;99.90
4399;DHT22;2213;49.720;7.296;2022-09-09T10:15:32;17.70;99.90
4399;DHT22;2213;49.720;7.296;2022-09-09T10:18:24;17.70;99.90
4399;DHT22;2213;49.720;7.296;2022-09-09T10:21:13;17.80;99.90
4399;DHT22;2213;49.720;7.296;2022-09-09T10:24:18;17.70;99.90
4399;DHT22;2213;49.720;7.296;2022-09-09T10:27:03;17.80;99.90
4399;DHT22;2213;49.720;7.296;2022-09-09T10:29:52;17.90;99.90
4399;DHT22;2213;49.720;7.296;2022-09-09T10:32:41;17.60;99.90
4399;DHT22;2213;49.720;7.296;2022-09-09T10:35:30;17.80;99.90
4399;DHT22;2213;49.720;7.296;2022-09-09T10:38:14;17.70;99.90
4399;DHT22;2213;49.720;7.296;2022-09-09T10:41:13;17.70;99.90
4399;DHT22;2213;49.720;7.296;2022-09-09T10:44:12;17.60;99.90
4399;DHT22;2213;49.720;7.296;2022-09-09T10:47:07;17.60;99.90
4399;DHT22;2213;49.720;7.296;2022-09-09T10:50:05;17.50;99.90
4399;DHT22;2213;49.720;7.296;2022-09-09T10:52:52;17.40;99.90
4399;DHT22;2213;49.720;7.296;2022-09-09T10:55:35;17.40;99.90
4399;DHT22;2213;49.720;7.296;2022-09-09T10:58:11;17.30;99.90
4399;DHT22;2213;49.720;7.296;2022-09-09T11:00:47;17.20;99.90
4399;DHT22;2213;49.720;7.296;2022-09-09T11:03:26;17.30;99.90
4399;DHT22;2213;49.720;7.296;2022-09-09T11:06:00;17.30;99.90
4399;DHT22;2213;49.720;7.296;2022-09-09T11:08:35;17.20;99.90
4399;DHT22;2213;49.720;7.296;2022-09-09T11:11:12;17.20;99.90
4399;DHT22;2213;49.720;7.296;2022-09-09T11:13:49;17.30;99.90
4399;DHT22;2213;49.720;7.296;2022-09-09T11:16:28;17.20;99.90
4399;DHT22;2213;49.720;7.296;2022-09-09T11:19:04;17.20;99.90
4399;DHT22;2213;49.720;7.296;2022-09-09T11:21:46;17.30;99.90
4399;DHT22;2213;49.720;7.296;2022-09-09T11:24:21;17.30;99.90
4399;DHT22;2213;49.720;7.296;2022-09-09T11:26:58;17.30;99.90
4399;DHT22;2213;49.720;7.296;2022-09-09T11:30:04;17.30;99.90
4399;DHT22;2213;49.720;7.296;2022-09-09T11:33:38;17.50;99.90
4399;DHT22;2213;49.720;7.296;2022-09-09T11:36:37;17.60;99.90
4399;DHT22;2213;49.720;7.296;2022-09-09T11:39:38;17.60;99.90
4399;DHT22;2213;49.720;7.296;2022-09-09T11:42:19;17.80;99.90
4399;DHT22;2213;49.720;7.296;2022-09-09T11:44:51;17.90;99.90
4399;DHT22;2213;49.720;7.296;2022-09-09T11:47:24;17.90;99.90
4399;DHT22;2213;49.720;7.296;2022-09-09T11:50:10;18.00;99.90
4399;DHT22;2213;49.720;7.296;2022-09-09T11:53:15;18.10;99.90
4399;DHT22;2213;49.720;7.296;2022-09-09T11:56:12;18.20;99.90
4399;DHT22;2213;49.720;7.296;2022-09-09T11:58:57;18.30;99.90
4399;DHT22;2213;49.720;7.296;2022-09-09T12:01:34;18.40;99.90
4399;DHT22;2213;49.720;7.296;2022-09-09T12:04:21;18.50;99.90
4399;DHT22;2213;49.720;7.296;2022-09-09T12:07:04;18.50;99.90
4399;DHT22;2213;49.720;7.296;2022-09-09T12:09:52;18.50;99.90
4399;DHT22;2213;49.720;7.296;2022-09-09T12:12:29;18.50;99.90
4399;DHT22;2213;49.720;7.296;2022-09-09T12:15:34;18.60;99.90
4399;DHT22;2213;49.720;7.296;2022-09-09T12:18:15;18.60;99.90
4399;DHT22;2213;49.720;7.296;2022-09-09T12:20:57;18.70;99.90
4399;DHT22;2213;49.720;7.296;2022-09-09T12:23:37;18.70;99.90
4399;DHT22;2213;49.720;7.296;2022-09-09T12:26:22;18.70;99.90
4399;DHT22;2213;49.720;7.296;2022-09-09T12:29:05;18.50;99.90
4399;DHT22;2213;49.720;7.296;2022-09-09T12:31:48;18.40;99.90
4399;DHT22;2213;49.720;7.296;2022-09-09T12:34:33;18.50;99.90
4399;DHT22;2213;49.720;7.296;2022-09-09T12:37:14;18.50;99.90
4399;DHT22;2213;49.720;7.296;2022-09-09T12:39:53;18.50;99.90
4399;DHT22;2213;49.720;7.296;2022-09-09T12:42:24;18.40;99.90
4399;DHT22;2213;49.720;7.296;2022-09-09T12:44:57;18.30;99.90
4399;DHT22;2213;49.720;7.296;2022-09-09T12:47:36;18.10;99.90
4399;DHT22;2213;49.720;7.296;2022-09-09T12:50:17;18.10;99.90
4399;DHT22;2213;49.720;7.296;2022-09-09T12:52:50;17.90;99.90
4399;DHT22;2213;49.720;7.296;2022-09-09T12:55:25;17.80;99.90
4399;DHT22;2213;49.720;7.296;2022-09-09T12:57:57;17.80;99.90
4399;DHT22;2213;49.720;7.296;2022-09-09T13:00:32;17.70;99.90
4399;DHT22;2213;49.720;7.296;2022-09-09T13:03:16;17.80;99.90
4399;DHT22;2213;49.720;7.296;2022-09-09T13:05:48;17.80;99.90
4399;DHT22;2213;49.720;7.296;2022-09-09T13:08:18;18.00;99.90
4399;DHT22;2213;49.720;7.296;2022-09-09T13:10:50;18.00;99.90
4399;DHT22;2213;49.720;7.296;2022-09-09T13:13:31;18.10;99.90
4399;DHT22;2213;49.720;7.296;2022-09-09T13:16:06;18.30;99.90
4399;DHT22;2213;49.720;7.296;2022-09-09T13:18:48;18.20;99.90
4399;DHT22;2213;49.720;7.296;2022-09-09T13:21:30;18.00;99.90
4399;DHT22;2213;49.720;7.296;2022-09-09T13:24:01;18.00;99.90
4399;DHT22;2213;49.720;7.296;2022-09-09T13:26:34;17.90;99.90
4399;DHT22;2213;49.720;7.296;2022-09-09T13:29:16;17.90;99.90
4399;DHT22;2213;49.720;7.296;2022-09-09T13:31:46;18.00;99.90
4399;DHT22;2213;49.720;7.296;2022-09-09T13:34:29;17.90;99.90
4399;DHT22;2213;49.720;7.296;2022-09-09T13:37:01;17.80;99.90
4399;DHT22;2213;49.720;7.296;2022-09-09T13:39:34;17.80;99.90
4399;DHT22;2213;49.720;7.296;2022-09-09T13:42:05;17.80;99.90
4399;DHT22;2213;49.720;7.296;2022-09-09T13:44:38;17.80;99.90
4399;DHT22;2213;49.720;7.296;2022-09-09T13:47:19;17.80;99.90
4399;DHT22;2213;49.720;7.296;2022-09-09T13:49:51;17.80;99.90
4399;DHT22;2213;49.720;7.296;2022-09-09T13:52:22;17.80;99.90
4399;DHT22;2213;49.720;7.296;2022-09-09T13:54:53;17.70;99.90
4399;DHT22;2213;49.720;7.296;2022-09-09T13:57:24;17.60;99.90
4399;DHT22;2213;49.720;7.296;2022-09-09T13:59:54;17.60;99.90
4399;DHT22;2213;49.720;7.296;2022-09-09T14:02:34;17.60;99.90
4399;DHT22;2213;49.720;7.296;2022-09-09T14:05:05;17.50;99.90
4399;DHT22;2213;49.720;7.296;2022-09-09T14:07:34;17.40;99.90
4399;DHT22;2213;49.720;7.296;2022-09-09T14:10:04;17.50;99.90
4399;DHT22;2213;49.720;7.296;2022-09-09T14:12:35;17.50;99.90
4399;DHT22;2213;49.720;7.296;2022-09-09T14:15:06;17.50;99.90
4399;DHT22;2213;49.720;7.296;2022-09-09T14:17:36;17.40;99.90
4399;DHT22;2213;49.720;7.296;2022-09-09T14:20:07;17.30;99.90
4399;DHT22;2213;49.720;7.296;2022-09-09T14:22:38;17.30;99.90
4399;DHT22;2213;49.720;7.296;2022-09-09T14:25:08;17.00;99.90
4399;DHT22;2213;49.720;7.296;2022-09-09T14:27:36;17.10;99.90
4399;DHT22;2213;49.720;7.296;2022-09-09T14:30:07;17.10;99.90
4399;DHT22;2213;49.720;7.296;2022-09-09T14:32:36;17.10;99.90
4399;DHT22;2213;49.720;7.296;2022-09-09T14:35:07;17.00;99.90
4399;DHT22;2213;49.720;7.296;2022-09-09T14:37:38;17.00;99.90
4399;DHT22;2213;49.720;7.296;2022-09-09T14:40:07;16.90;99.90
4399;DHT22;2213;49.720;7.296;2022-09-09T14:42:36;17.00;99.90
4399;DHT22;2213;49.720;7.296;2022-09-09T14:45:06;17.00;99.90
4399;DHT22;2213;49.720;7.296;2022-09-09T14:47:36;17.10;99.90
4399;DHT22;2213;49.720;7.296;2022-09-09T14:50:07;17.30;99.90
4399;DHT22;2213;49.720;7.296;2022-09-09T14:52:36;17.40;99.90
4399;DHT22;2213;49.720;7.296;2022-09-09T14:55:06;17.50;99.90
4399;DHT22;2213;49.720;7.296;2022-09-09T14:57:35;17.60;99.90
4399;DHT22;2213;49.720;7.296;2022-09-09T15:00:04;17.50;99.90
4399;DHT22;2213;49.720;7.296;2022-09-09T15:02:34;17.50;99.90
4399;DHT22;2213;49.720;7.296;2022-09-09T15:05:06;17.50;99.90
4399;DHT22;2213;49.720;7.296;2022-09-09T15:07:35;17.50;99.90
4399;DHT22;2213;49.720;7.296;2022-09-09T15:10:05;17.30;99.90
4399;DHT22;2213;49.720;7.296;2022-09-09T15:12:34;17.20;99.90
4399;DHT22;2213;49.720;7.296;2022-09-09T15:15:04;17.20;99.90
4399;DHT22;2213;49.720;7.296;2022-09-09T15:17:33;17.10;99.90
4399;DHT22;2213;49.720;7.296;2022-09-09T15:20:03;17.20;99.90
4399;DHT22;2213;49.720;7.296;2022-09-09T15:22:34;17.10;99.90
4399;DHT22;2213;49.720;7.296;2022-09-09T15:25:05;16.90;99.90
4399;DHT22;2213;49.720;7.296;2022-09-09T15:27:35;16.90;99.90
4399;DHT22;2213;49.720;7.296;2022-09-09T15:30:07;16.90;99.90
4399;DHT22;2213;49.720;7.296;2022-09-09T15:32:36;16.90;99.90
4399;DHT22;2213;49.720;7.296;2022-09-09T15:35:06;16.80;99.90
4399;DHT22;2213;49.720;7.296;2022-09-09T15:37:36;16.70;99.90
4399;DHT22;2213;49.720;7.296;2022-09-09T15:40:06;16.70;99.90
4399;DHT22;2213;49.720;7.296;2022-09-09T15:42:36;16.60;99.90
4399;DHT22;2213;49.720;7.296;2022-09-09T15:45:05;16.50;99.90
4399;DHT22;2213;49.720;7.296;2022-09-09T15:47:36;16.50;99.90
4399;DHT22;2213;49.720;7.296;2022-09-09T15:50:06;16.40;99.90
4399;DHT22;2213;49.720;7.296;2022-09-09T15:52:37;16.40;99.90
4399;DHT22;2213;49.720;7.296;2022-09-09T15:55:07;16.30;99.90
4399;DHT22;2213;49.720;7.296;2022-09-09T15:57:36;16.30;99.90
4399;DHT22;2213;49.720;7.296;2022-09-09T16:00:06;16.30;99.90
4399;DHT22;2213;49.720;7.296;2022-09-09T16:02:39;16.30;99.90
4399;DHT22;2213;49.720;7.296;2022-09-09T16:05:08;16.30;99.90
4399;DHT22;2213;49.720;7.296;2022-09-09T16:07:38;16.20;99.90
4399;DHT22;2213;49.720;7.296;2022-09-09T16:10:09;16.20;99.90
4399;DHT22;2213;49.720;7.296;2022-09-09T16:12:38;16.30;99.90
4399;DHT22;2213;49.720;7.296;2022-09-09T16:15:06;16.20;99.90
4399;DHT22;2213;49.720;7.296;2022-09-09T16:17:37;16.20;99.90
4399;DHT22;2213;49.720;7.296;2022-09-09T16:20:06;16.20;99.90
4399;DHT22;2213;49.720;7.296;2022-09-09T16:22:35;16.20;99.90
4399;DHT22;2213;49.720;7.296;2022-09-09T16:25:06;16.30;99.90
4399;DHT22;2213;49.720;7.296;2022-09-09T16:27:37;16.30;99.90
4399;DHT22;2213;49.720;7.296;2022-09-09T16:30:07;16.30;99.90
4399;DHT22;2213;49.720;7.296;2022-09-09T16:32:36;16.30;99.90
4399;DHT22;2213;49.720;7.296;2022-09-09T16:35:06;16.20;99.90
4399;DHT22;2213;49.720;7.296;2022-09-09T16:37:35;16.20;99.90
4399;DHT22;2213;49.720;7.296;2022-09-09T16:40:06;16.20;99.90
4399;DHT22;2213;49.720;7.296;2022-09-09T16:42:36;16.20;99.90
4399;DHT22;2213;49.720;7.296;2022-09-09T16:45:06;16.10;99.90
4399;DHT22;2213;49.720;7.296;2022-09-09T16:47:37;16.00;99.90
4399;DHT22;2213;49.720;7.296;2022-09-09T16:50:07;16.10;99.90
4399;DHT22;2213;49.720;7.296;2022-09-09T16:52:37;16.00;99.90
4399;DHT22;2213;49.720;7.296;2022-09-09T16:55:08;16.10;99.90